sensor_id;sensor_type;location;lat;lon;timestamp;temperature;humidity
7254;DHT22;4060;49.186;9.226;2023-04-24T00:02:07;19.10;53.60
7254;DHT22;4060;49.186;9.226;2023-04-24T00:04:38;19.10;53.60
7254;DHT22;4060;49.186;9.226;2023-04-24T00:07:08;19.10;53.60
7254;DHT22;4060;49.186;9.226;2023-04-24T00:09:38;19.00;53.60
7254;DHT22;4060;49.186;9.226;2023-04-24T00:12:08;19.00;53.60
7254;DHT22;4060;49.186;9.226;2023-04-24T00:14:37;19.00;53.60
7254;DHT22;4060;49.186;9.226;2023-04-24T00:17:09;19.00;53.70
7254;DHT22;4060;49.186;9.226;2023-04-24T00:19:39;19.00;53.70
7254;DHT22;4060;49.186;9.226;2023-04-24T00:22:08;18.90;53.70
7254;DHT22;4060;49.186;9.226;2023-04-24T00:24:40;18.90;53.70
7254;DHT22;4060;49.186;9.226;2023-04-24T00:27:10;18.90;53.70
7254;DHT22;4060;49.186;9.226;2023-04-24T00:29:39;18.80;53.60
7254;DHT22;4060;49.186;9.226;2023-04-24T00:32:10;18.80;53.70
7254;DHT22;4060;49.186;9.226;2023-04-24T00:34:40;18.80;53.80
7254;DHT22;4060;49.186;9.226;2023-04-24T00:37:09;18.80;53.70
7254;DHT22;4060;49.186;9.226;2023-04-24T00:39:39;18.80;53.80
7254;DHT22;4060;49.186;9.226;2023-04-24T00:42:08;18.80;53.90
7254;DHT22;4060;49.186;9.226;2023-04-24T00:44:39;18.70;53.80
7254;DHT22;4060;49.186;9.226;2023-04-24T00:47:11;18.70;53.80
7254;DHT22;4060;49.186;9.226;2023-04-24T00:49:41;18.70;53.90
7254;DHT22;4060;49.186;9.226;2023-04-24T00:52:11;18.70;53.90
7254;DHT22;4060;49.186;9.226;2023-04-24T00:54:45;18.70;53.90
7254;DHT22;4060;49.186;9.226;2023-04-24T00:57:14;18.60;53.80
7254;DHT22;4060;49.186;9.226;2023-04-24T00:59:44;18.60;53.90
7254;DHT22;4060;49.186;9.226;2023-04-24T01:02:17;18.60;53.90
7254;DHT22;4060;49.186;9.226;2023-04-24T01:04:47;18.60;53.90
7254;DHT22;4060;49.186;9.226;2023-04-24T01:07:18;18.60;54.00
7254;DHT22;4060;49.186;9.226;2023-04-24T01:09:49;18.50;53.90
7254;DHT22;4060;49.186;9.226;2023-04-24T01:12:19;18.50;54.00
7254;DHT22;4060;49.186;9.226;2023-04-24T01:14:48;18.50;54.00
7254;DHT22;4060;49.186;9.226;2023-04-24T01:17:19;18.50;54.00
7254;DHT22;4060;49.186;9.226;2023-04-24T01:19:50;18.50;54.30
7254;DHT22;4060;49.186;9.226;2023-04-24T01:22:22;18.40;54.00
7254;DHT22;4060;49.186;9.226;2023-04-24T01:24:51;18.40;54.10
7254;DHT22;4060;49.186;9.226;2023-04-24T01:27:22;18.40;54.10
7254;DHT22;4060;49.186;9.226;2023-04-24T01:29:51;18.40;54.20
7254;DHT22;4060;49.186;9.226;2023-04-24T01:32:20;18.40;54.20
7254;DHT22;4060;49.186;9.226;2023-04-24T01:34:50;18.40;54.20
7254;DHT22;4060;49.186;9.226;2023-04-24T01:37:21;18.30;54.30
7254;DHT22;4060;49.186;9.226;2023-04-24T01:39:51;18.30;54.30
7254;DHT22;4060;49.186;9.226;2023-04-24T01:42:20;18.30;54.40
7254;DHT22;4060;49.186;9.226;2023-04-24T01:44:50;18.30;54.50
7254;DHT22;4060;49.186;9.226;2023-04-24T01:47:20;18.20;54.50
7254;DHT22;4060;49.186;9.226;2023-04-24T01:49:50;18.30;54.60
7254;DHT22;4060;49.186;9.226;2023-04-24T01:52:23;18.20;54.70
7254;DHT22;4060;49.186;9.226;2023-04-24T01:54:54;18.20;54.70
7254;DHT22;4060;49.186;9.226;2023-04-24T01:57:30;18.20;54.80
7254;DHT22;4060;49.186;9.226;2023-04-24T01:59:59;18.20;54.90
7254;DHT22;4060;49.186;9.226;2023-04-24T02:02:30;18.20;54.90
7254;DHT22;4060;49.186;9.226;2023-04-24T02:05:00;18.10;54.90
7254;DHT22;4060;49.186;9.226;2023-04-24T02:07:31;18.10;54.90
7254;DHT22;4060;49.186;9.226;2023-04-24T02:10:01;18.10;55.00
7254;DHT22;4060;49.186;9.226;2023-04-24T02:12:31;18.10;55.50
7254;DHT22;4060;49.186;9.226;2023-04-24T02:15:00;18.10;55.00
7254;DHT22;4060;49.186;9.226;2023-04-24T02:17:29;18.10;55.10
7254;DHT22;4060;49.186;9.226;2023-04-24T02:19:59;18.00;55.10
7254;DHT22;4060;49.186;9.226;2023-04-24T02:22:31;18.00;55.10
7254;DHT22;4060;49.186;9.226;2023-04-24T02:25:00;18.00;55.10
7254;DHT22;4060;49.186;9.226;2023-04-24T02:27:29;18.00;55.20
7254;DHT22;4060;49.186;9.226;2023-04-24T02:29:59;18.00;55.20
7254;DHT22;4060;49.186;9.226;2023-04-24T02:32:29;18.00;55.30
7254;DHT22;4060;49.186;9.226;2023-04-24T02:34:59;17.90;55.30
7254;DHT22;4060;49.186;9.226;2023-04-24T02:37:31;17.90;55.30
7254;DHT22;4060;49.186;9.226;2023-04-24T02:40:00;17.90;55.30
7254;DHT22;4060;49.186;9.226;2023-04-24T02:42:30;17.90;55.30
7254;DHT22;4060;49.186;9.226;2023-04-24T02:45:00;17.90;55.40
7254;DHT22;4060;49.186;9.226;2023-04-24T02:47:29;17.90;55.40
7254;DHT22;4060;49.186;9.226;2023-04-24T02:49:59;17.90;55.50
7254;DHT22;4060;49.186;9.226;2023-04-24T02:52:30;17.80;55.40
7254;DHT22;4060;49.186;9.226;2023-04-24T02:55:00;17.80;55.40
7254;DHT22;4060;49.186;9.226;2023-04-24T02:57:29;17.80;55.40
7254;DHT22;4060;49.186;9.226;2023-04-24T02:59:59;17.80;55.50
7254;DHT22;4060;49.186;9.226;2023-04-24T03:02:29;17.80;55.50
7254;DHT22;4060;49.186;9.226;2023-04-24T03:04:59;17.80;55.50
7254;DHT22;4060;49.186;9.226;2023-04-24T03:07:31;17.70;55.50
7254;DHT22;4060;49.186;9.226;2023-04-24T03:10:00;17.70;55.50
7254;DHT22;4060;49.186;9.226;2023-04-24T03:12:30;17.70;55.50
7254;DHT22;4060;49.186;9.226;2023-04-24T03:14:59;17.70;55.50
7254;DHT22;4060;49.186;9.226;2023-04-24T03:17:29;17.70;55.50
7254;DHT22;4060;49.186;9.226;2023-04-24T03:19:58;17.70;55.60
7254;DHT22;4060;49.186;9.226;2023-04-24T03:22:30;17.70;55.60
7254;DHT22;4060;49.186;9.226;2023-04-24T03:25:00;17.60;55.50
7254;DHT22;4060;49.186;9.226;2023-04-24T03:27:29;17.60;55.60
7254;DHT22;4060;49.186;9.226;2023-04-24T03:29:58;17.60;55.60
7254;DHT22;4060;49.186;9.226;2023-04-24T03:32:27;17.60;55.60
7254;DHT22;4060;49.186;9.226;2023-04-24T03:34:57;17.60;55.60
7254;DHT22;4060;49.186;9.226;2023-04-24T03:37:26;17.60;55.70
7254;DHT22;4060;49.186;9.226;2023-04-24T03:39:57;17.50;55.70
7254;DHT22;4060;49.186;9.226;2023-04-24T03:42:26;17.50;55.70
7254;DHT22;4060;49.186;9.226;2023-04-24T03:44:56;17.50;55.70
7254;DHT22;4060;49.186;9.226;2023-04-24T03:47:25;17.50;55.80
7254;DHT22;4060;49.186;9.226;2023-04-24T03:49:54;17.50;55.80
7254;DHT22;4060;49.186;9.226;2023-04-24T03:52:24;17.50;55.80
7254;DHT22;4060;49.186;9.226;2023-04-24T03:54:55;17.50;55.90
7254;DHT22;4060;49.186;9.226;2023-04-24T03:57:25;17.40;55.80
7254;DHT22;4060;49.186;9.226;2023-04-24T03:59:54;17.40;55.90
7254;DHT22;4060;49.186;9.226;2023-04-24T04:02:23;17.40;55.90
7254;DHT22;4060;49.186;9.226;2023-04-24T04:04:53;17.40;56.00
7254;DHT22;4060;49.186;9.226;2023-04-24T04:07:22;17.40;56.00
7254;DHT22;4060;49.186;9.226;2023-04-24T04:09:52;17.40;56.10
7254;DHT22;4060;49.186;9.226;2023-04-24T04:12:23;17.30;56.60
7254;DHT22;4060;49.186;9.226;2023-04-24T04:14:53;17.30;56.20
7254;DHT22;4060;49.186;9.226;2023-04-24T04:17:22;17.30;56.20
7254;DHT22;4060;49.186;9.226;2023-04-24T04:19:51;17.30;56.30
7254;DHT22;4060;49.186;9.226;2023-04-24T04:22:20;17.30;56.40
7254;DHT22;4060;49.186;9.226;2023-04-24T04:24:50;17.30;56.50
7254;DHT22;4060;49.186;9.226;2023-04-24T04:27:22;17.30;56.60
7254;DHT22;4060;49.186;9.226;2023-04-24T04:29:51;17.30;56.80
7254;DHT22;4060;49.186;9.226;2023-04-24T04:32:21;17.20;56.80
7254;DHT22;4060;49.186;9.226;2023-04-24T04:34:50;17.20;56.80
7254;DHT22;4060;49.186;9.226;2023-04-24T04:37:20;17.20;57.00
7254;DHT22;4060;49.186;9.226;2023-04-24T04:39:50;17.20;57.10
7254;DHT22;4060;49.186;9.226;2023-04-24T04:42:22;17.20;57.10
7254;DHT22;4060;49.186;9.226;2023-04-24T04:44:52;17.20;57.20
7254;DHT22;4060;49.186;9.226;2023-04-24T04:47:22;17.20;57.30
7254;DHT22;4060;49.186;9.226;2023-04-24T04:49:52;17.10;57.20
7254;DHT22;4060;49.186;9.226;2023-04-24T04:52:22;17.10;57.30
7254;DHT22;4060;49.186;9.226;2023-04-24T04:54:53;17.10;57.40
7254;DHT22;4060;49.186;9.226;2023-04-24T04:57:24;17.10;57.40
7254;DHT22;4060;49.186;9.226;2023-04-24T04:59:54;17.10;57.40
7254;DHT22;4060;49.186;9.226;2023-04-24T05:02:23;17.10;57.50
7254;DHT22;4060;49.186;9.226;2023-04-24T05:04:53;17.00;57.40
7254;DHT22;4060;49.186;9.226;2023-04-24T05:07:22;17.00;57.40
7254;DHT22;4060;49.186;9.226;2023-04-24T05:09:52;17.00;57.40
7254;DHT22;4060;49.186;9.226;2023-04-24T05:12:23;17.00;57.40
7254;DHT22;4060;49.186;9.226;2023-04-24T05:14:53;17.00;57.50
7254;DHT22;4060;49.186;9.226;2023-04-24T05:17:22;17.00;57.50
7254;DHT22;4060;49.186;9.226;2023-04-24T05:19:53;17.00;57.50
7254;DHT22;4060;49.186;9.226;2023-04-24T05:22:22;17.00;57.50
7254;DHT22;4060;49.186;9.226;2023-04-24T05:24:53;16.90;57.60
7254;DHT22;4060;49.186;9.226;2023-04-24T05:27:24;16.90;57.60
7254;DHT22;4060;49.186;9.226;2023-04-24T05:29:54;16.90;57.60
7254;DHT22;4060;49.186;9.226;2023-04-24T05:32:23;16.90;57.60
7254;DHT22;4060;49.186;9.226;2023-04-24T05:34:54;16.90;57.60
7254;DHT22;4060;49.186;9.226;2023-04-24T05:37:23;16.90;57.60
7254;DHT22;4060;49.186;9.226;2023-04-24T05:39:53;16.90;57.70
7254;DHT22;4060;49.186;9.226;2023-04-24T05:42:24;16.80;57.70
7254;DHT22;4060;49.186;9.226;2023-04-24T05:44:54;16.80;57.70
7254;DHT22;4060;49.186;9.226;2023-04-24T05:47:23;16.80;57.70
7254;DHT22;4060;49.186;9.226;2023-04-24T05:49:53;16.80;57.80
7254;DHT22;4060;49.186;9.226;2023-04-24T05:52:22;16.80;58.50
7254;DHT22;4060;49.186;9.226;2023-04-24T05:54:51;16.80;58.10
7254;DHT22;4060;49.186;9.226;2023-04-24T05:57:20;16.80;58.30
7254;DHT22;4060;49.186;9.226;2023-04-24T05:59:51;16.80;58.40
7254;DHT22;4060;49.186;9.226;2023-04-24T06:02:21;16.90;58.60
7254;DHT22;4060;49.186;9.226;2023-04-24T06:04:50;16.90;58.60
7254;DHT22;4060;49.186;9.226;2023-04-24T06:07:20;16.90;58.80
7254;DHT22;4060;49.186;9.226;2023-04-24T06:09:50;17.00;59.00
7254;DHT22;4060;49.186;9.226;2023-04-24T06:12:19;17.00;59.10
7254;DHT22;4060;49.186;9.226;2023-04-24T06:14:51;17.00;59.30
7254;DHT22;4060;49.186;9.226;2023-04-24T06:17:21;17.00;59.30
7254;DHT22;4060;49.186;9.226;2023-04-24T06:19:50;17.10;59.40
7254;DHT22;4060;49.186;9.226;2023-04-24T06:22:20;17.10;59.40
7254;DHT22;4060;49.186;9.226;2023-04-24T06:24:50;17.20;59.40
7254;DHT22;4060;49.186;9.226;2023-04-24T06:27:19;17.20;59.20
7254;DHT22;4060;49.186;9.226;2023-04-24T06:29:51;17.20;59.00
7254;DHT22;4060;49.186;9.226;2023-04-24T06:32:22;17.20;58.90
7254;DHT22;4060;49.186;9.226;2023-04-24T06:34:52;17.20;58.70
7254;DHT22;4060;49.186;9.226;2023-04-24T06:37:22;17.20;58.50
7254;DHT22;4060;49.186;9.226;2023-04-24T06:39:51;17.20;58.40
7254;DHT22;4060;49.186;9.226;2023-04-24T06:42:21;17.10;58.20
7254;DHT22;4060;49.186;9.226;2023-04-24T06:44:54;17.10;58.20
7254;DHT22;4060;49.186;9.226;2023-04-24T06:47:23;17.10;58.00
7254;DHT22;4060;49.186;9.226;2023-04-24T06:49:52;17.00;57.90
7254;DHT22;4060;49.186;9.226;2023-04-24T06:52:22;17.00;57.90
7254;DHT22;4060;49.186;9.226;2023-04-24T06:54:52;17.00;58.00
7254;DHT22;4060;49.186;9.226;2023-04-24T06:57:21;16.90;58.00
7254;DHT22;4060;49.186;9.226;2023-04-24T06:59:52;17.00;58.10
7254;DHT22;4060;49.186;9.226;2023-04-24T07:02:22;16.90;58.10
7254;DHT22;4060;49.186;9.226;2023-04-24T07:04:52;16.90;58.10
7254;DHT22;4060;49.186;9.226;2023-04-24T07:07:21;16.90;57.90
7254;DHT22;4060;49.186;9.226;2023-04-24T07:09:51;16.90;57.70
7254;DHT22;4060;49.186;9.226;2023-04-24T07:12:21;16.80;57.70
7254;DHT22;4060;49.186;9.226;2023-04-24T07:14:53;16.80;57.80
7254;DHT22;4060;49.186;9.226;2023-04-24T07:17:22;16.80;57.90
7254;DHT22;4060;49.186;9.226;2023-04-24T07:19:52;16.80;57.90
7254;DHT22;4060;49.186;9.226;2023-04-24T07:22:21;16.70;57.90
7254;DHT22;4060;49.186;9.226;2023-04-24T07:24:51;16.70;57.90
7254;DHT22;4060;49.186;9.226;2023-04-24T07:27:21;16.70;57.90
7254;DHT22;4060;49.186;9.226;2023-04-24T07:29:53;16.70;57.90
7254;DHT22;4060;49.186;9.226;2023-04-24T07:32:29;16.70;57.90
7254;DHT22;4060;49.186;9.226;2023-04-24T07:34:58;16.70;57.90
7254;DHT22;4060;49.186;9.226;2023-04-24T07:37:28;16.70;57.80
7254;DHT22;4060;49.186;9.226;2023-04-24T07:39:58;16.70;57.90
7254;DHT22;4060;49.186;9.226;2023-04-24T07:42:29;16.70;57.80
7254;DHT22;4060;49.186;9.226;2023-04-24T07:45:00;16.70;57.90
7254;DHT22;4060;49.186;9.226;2023-04-24T07:47:31;16.70;57.90
7254;DHT22;4060;49.186;9.226;2023-04-24T07:50:00;16.80;57.90
7254;DHT22;4060;49.186;9.226;2023-04-24T07:52:29;16.80;57.90
7254;DHT22;4060;49.186;9.226;2023-04-24T07:54:59;16.80;57.90
7254;DHT22;4060;49.186;9.226;2023-04-24T07:57:29;16.90;58.00
7254;DHT22;4060;49.186;9.226;2023-04-24T08:00:01;16.90;58.00
7254;DHT22;4060;49.186;9.226;2023-04-24T08:02:30;17.00;58.10
7254;DHT22;4060;49.186;9.226;2023-04-24T08:05:00;17.00;57.90
7254;DHT22;4060;49.186;9.226;2023-04-24T08:07:30;17.10;57.80
7254;DHT22;4060;49.186;9.226;2023-04-24T08:09:59;17.10;57.60
7254;DHT22;4060;49.186;9.226;2023-04-24T08:12:29;17.10;57.40
7254;DHT22;4060;49.186;9.226;2023-04-24T08:15:00;17.10;57.20
7254;DHT22;4060;49.186;9.226;2023-04-24T08:17:29;17.10;57.00
7254;DHT22;4060;49.186;9.226;2023-04-24T08:19:58;17.20;56.80
7254;DHT22;4060;49.186;9.226;2023-04-24T08:22:28;17.10;56.60
7254;DHT22;4060;49.186;9.226;2023-04-24T08:24:59;17.10;56.40
7254;DHT22;4060;49.186;9.226;2023-04-24T08:27:28;17.10;56.30
7254;DHT22;4060;49.186;9.226;2023-04-24T08:30:03;17.10;56.00
7254;DHT22;4060;49.186;9.226;2023-04-24T08:32:33;17.10;55.50
7254;DHT22;4060;49.186;9.226;2023-04-24T08:35:02;17.10;55.50
7254;DHT22;4060;49.186;9.226;2023-04-24T08:37:31;17.20;55.60
7254;DHT22;4060;49.186;9.226;2023-04-24T08:40:02;17.20;55.50
7254;DHT22;4060;49.186;9.226;2023-04-24T08:42:37;17.40;55.50
7254;DHT22;4060;49.186;9.226;2023-04-24T08:45:09;17.50;55.40
7254;DHT22;4060;49.186;9.226;2023-04-24T08:47:39;17.60;55.20
7254;DHT22;4060;49.186;9.226;2023-04-24T08:50:10;17.80;55.00
7254;DHT22;4060;49.186;9.226;2023-04-24T08:52:39;17.90;54.90
7254;DHT22;4060;49.186;9.226;2023-04-24T08:55:10;18.00;54.80
7254;DHT22;4060;49.186;9.226;2023-04-24T08:57:40;18.10;54.70
7254;DHT22;4060;49.186;9.226;2023-04-24T09:00:15;18.20;54.50
7254;DHT22;4060;49.186;9.226;2023-04-24T09:02:47;18.30;54.50
7254;DHT22;4060;49.186;9.226;2023-04-24T09:05:17;18.30;54.30
7254;DHT22;4060;49.186;9.226;2023-04-24T09:07:53;18.40;54.30
7254;DHT22;4060;49.186;9.226;2023-04-24T09:10:24;18.50;54.20
7254;DHT22;4060;49.186;9.226;2023-04-24T09:12:55;18.50;54.00
7254;DHT22;4060;49.186;9.226;2023-04-24T09:15:27;18.60;53.90
7254;DHT22;4060;49.186;9.226;2023-04-24T09:17:56;18.60;53.70
7254;DHT22;4060;49.186;9.226;2023-04-24T09:20:26;18.60;53.50
7254;DHT22;4060;49.186;9.226;2023-04-24T09:22:57;18.70;53.40
7254;DHT22;4060;49.186;9.226;2023-04-24T09:25:34;18.70;53.80
7254;DHT22;4060;49.186;9.226;2023-04-24T09:28:04;18.70;53.10
7254;DHT22;4060;49.186;9.226;2023-04-24T09:30:36;18.80;53.10
7254;DHT22;4060;49.186;9.226;2023-04-24T09:33:13;18.80;52.90
7254;DHT22;4060;49.186;9.226;2023-04-24T09:35:49;18.90;52.70
7254;DHT22;4060;49.186;9.226;2023-04-24T09:38:23;18.90;52.60
7254;DHT22;4060;49.186;9.226;2023-04-24T09:41:01;18.90;52.80
7254;DHT22;4060;49.186;9.226;2023-04-24T09:43:31;18.90;52.20
7254;DHT22;4060;49.186;9.226;2023-04-24T09:46:05;18.90;52.00
7254;DHT22;4060;49.186;9.226;2023-04-24T09:48:37;18.90;51.90
7254;DHT22;4060;49.186;9.226;2023-04-24T09:51:07;18.90;51.80
7254;DHT22;4060;49.186;9.226;2023-04-24T09:53:38;18.90;51.70
7254;DHT22;4060;49.186;9.226;2023-04-24T09:56:09;18.90;51.60
7254;DHT22;4060;49.186;9.226;2023-04-24T09:58:39;18.90;51.50
7254;DHT22;4060;49.186;9.226;2023-04-24T10:01:11;18.90;51.30
7254;DHT22;4060;49.186;9.226;2023-04-24T10:03:42;18.90;51.20
7254;DHT22;4060;49.186;9.226;2023-04-24T10:06:12;18.90;51.00
7254;DHT22;4060;49.186;9.226;2023-04-24T10:08:42;18.90;51.00
7254;DHT22;4060;49.186;9.226;2023-04-24T10:11:13;18.90;50.90
7254;DHT22;4060;49.186;9.226;2023-04-24T10:13:43;18.90;51.20
7254;DHT22;4060;49.186;9.226;2023-04-24T10:16:14;18.90;50.70
7254;DHT22;4060;49.186;9.226;2023-04-24T10:18:44;18.90;50.60
7254;DHT22;4060;49.186;9.226;2023-04-24T10:21:14;18.90;50.50
7254;DHT22;4060;49.186;9.226;2023-04-24T10:23:43;18.90;50.50
7254;DHT22;4060;49.186;9.226;2023-04-24T10:26:14;18.90;50.40
7254;DHT22;4060;49.186;9.226;2023-04-24T10:28:45;18.90;50.40
7254;DHT22;4060;49.186;9.226;2023-04-24T10:31:17;18.80;50.20
7254;DHT22;4060;49.186;9.226;2023-04-24T10:33:46;18.80;50.20
7254;DHT22;4060;49.186;9.226;2023-04-24T10:36:17;18.80;50.10
7254;DHT22;4060;49.186;9.226;2023-04-24T10:38:59;18.80;50.10
7254;DHT22;4060;49.186;9.226;2023-04-24T10:41:30;18.80;50.10
7254;DHT22;4060;49.186;9.226;2023-04-24T10:44:11;18.80;50.10
7254;DHT22;4060;49.186;9.226;2023-04-24T10:46:44;18.80;50.10
7254;DHT22;4060;49.186;9.226;2023-04-24T10:49:14;18.80;50.10
7254;DHT22;4060;49.186;9.226;2023-04-24T10:51:46;18.70;50.00
7254;DHT22;4060;49.186;9.226;2023-04-24T10:54:34;18.80;50.00
7254;DHT22;4060;49.186;9.226;2023-04-24T10:57:30;18.80;50.10
7254;DHT22;4060;49.186;9.226;2023-04-24T11:00:16;18.80;50.10
7254;DHT22;4060;49.186;9.226;2023-04-24T11:02:49;18.80;50.10
7254;DHT22;4060;49.186;9.226;2023-04-24T11:05:22;18.80;50.10
7254;DHT22;4060;49.186;9.226;2023-04-24T11:08:13;18.80;50.00
7254;DHT22;4060;49.186;9.226;2023-04-24T11:10:47;18.70;49.80
7254;DHT22;4060;49.186;9.226;2023-04-24T11:13:25;18.70;49.70
7254;DHT22;4060;49.186;9.226;2023-04-24T11:16:12;18.70;49.60
7254;DHT22;4060;49.186;9.226;2023-04-24T11:18:44;18.70;49.50
7254;DHT22;4060;49.186;9.226;2023-04-24T11:21:18;18.70;49.60
7254;DHT22;4060;49.186;9.226;2023-04-24T11:23:48;18.70;49.50
7254;DHT22;4060;49.186;9.226;2023-04-24T11:26:23;18.70;49.40
7254;DHT22;4060;49.186;9.226;2023-04-24T11:29:07;18.70;49.30
7254;DHT22;4060;49.186;9.226;2023-04-24T11:31:39;18.60;49.10
7254;DHT22;4060;49.186;9.226;2023-04-24T11:34:12;18.60;49.10
7254;DHT22;4060;49.186;9.226;2023-04-24T11:36:43;18.60;49.10
7254;DHT22;4060;49.186;9.226;2023-04-24T11:39:13;18.60;49.10
7254;DHT22;4060;49.186;9.226;2023-04-24T11:41:43;18.60;49.10
7254;DHT22;4060;49.186;9.226;2023-04-24T11:44:14;18.60;49.20
7254;DHT22;4060;49.186;9.226;2023-04-24T11:46:44;18.60;49.30
7254;DHT22;4060;49.186;9.226;2023-04-24T11:49:15;18.50;49.40
7254;DHT22;4060;49.186;9.226;2023-04-24T11:51:45;18.50;49.50
7254;DHT22;4060;49.186;9.226;2023-04-24T11:54:15;18.50;49.60
7254;DHT22;4060;49.186;9.226;2023-04-24T11:56:46;18.50;49.70
7254;DHT22;4060;49.186;9.226;2023-04-24T11:59:16;18.50;49.70
7254;DHT22;4060;49.186;9.226;2023-04-24T12:01:46;18.50;49.80
7254;DHT22;4060;49.186;9.226;2023-04-24T12:04:18;18.50;49.90
7254;DHT22;4060;49.186;9.226;2023-04-24T12:07:08;18.50;49.90
7254;DHT22;4060;49.186;9.226;2023-04-24T12:09:44;18.50;50.00
7254;DHT22;4060;49.186;9.226;2023-04-24T12:12:15;18.50;50.10
7254;DHT22;4060;49.186;9.226;2023-04-24T12:14:49;18.50;50.10
7254;DHT22;4060;49.186;9.226;2023-04-24T12:17:25;18.50;50.20
7254;DHT22;4060;49.186;9.226;2023-04-24T12:20:01;18.50;50.20
7254;DHT22;4060;49.186;9.226;2023-04-24T12:22:44;18.50;50.20
7254;DHT22;4060;49.186;9.226;2023-04-24T12:25:15;18.50;50.20
7254;DHT22;4060;49.186;9.226;2023-04-24T12:27:46;18.50;50.20
7254;DHT22;4060;49.186;9.226;2023-04-24T12:30:16;18.50;50.20
7254;DHT22;4060;49.186;9.226;2023-04-24T12:32:47;18.40;50.20
7254;DHT22;4060;49.186;9.226;2023-04-24T12:35:22;18.40;50.10
7254;DHT22;4060;49.186;9.226;2023-04-24T12:37:52;18.40;50.20
7254;DHT22;4060;49.186;9.226;2023-04-24T12:40:22;18.40;50.20
7254;DHT22;4060;49.186;9.226;2023-04-24T12:42:59;18.40;50.20
7254;DHT22;4060;49.186;9.226;2023-04-24T12:45:28;18.40;50.30
7254;DHT22;4060;49.186;9.226;2023-04-24T12:47:57;18.40;50.30
7254;DHT22;4060;49.186;9.226;2023-04-24T12:50:28;18.40;50.40
7254;DHT22;4060;49.186;9.226;2023-04-24T12:52:57;18.40;50.40
7254;DHT22;4060;49.186;9.226;2023-04-24T12:55:26;18.40;50.40
7254;DHT22;4060;49.186;9.226;2023-04-24T12:57:56;18.40;50.40
7254;DHT22;4060;49.186;9.226;2023-04-24T13:00:25;18.50;50.50
7254;DHT22;4060;49.186;9.226;2023-04-24T13:02:54;18.50;50.50
7254;DHT22;4060;49.186;9.226;2023-04-24T13:05:24;18.40;50.40
7254;DHT22;4060;49.186;9.226;2023-04-24T13:07:55;18.40;50.40
7254;DHT22;4060;49.186;9.226;2023-04-24T13:10:25;18.40;50.40
7254;DHT22;4060;49.186;9.226;2023-04-24T13:12:54;18.40;50.40
7254;DHT22;4060;49.186;9.226;2023-04-24T13:15:25;18.40;50.30
7254;DHT22;4060;49.186;9.226;2023-04-24T13:17:55;18.40;50.30
7254;DHT22;4060;49.186;9.226;2023-04-24T13:20:24;18.40;50.20
7254;DHT22;4060;49.186;9.226;2023-04-24T13:22:56;18.40;50.20
7254;DHT22;4060;49.186;9.226;2023-04-24T13:25:25;18.40;50.20
7254;DHT22;4060;49.186;9.226;2023-04-24T13:27:55;18.40;50.20
7254;DHT22;4060;49.186;9.226;2023-04-24T13:30:25;18.40;50.10
7254;DHT22;4060;49.186;9.226;2023-04-24T13:32:55;18.40;50.00
7254;DHT22;4060;49.186;9.226;2023-04-24T13:35:24;18.40;50.00
7254;DHT22;4060;49.186;9.226;2023-04-24T13:37:57;18.40;50.00
7254;DHT22;4060;49.186;9.226;2023-04-24T13:40:28;18.40;50.10
7254;DHT22;4060;49.186;9.226;2023-04-24T13:42:58;18.40;50.20
7254;DHT22;4060;49.186;9.226;2023-04-24T13:45:27;18.40;50.20
7254;DHT22;4060;49.186;9.226;2023-04-24T13:47:57;18.40;50.40
7254;DHT22;4060;49.186;9.226;2023-04-24T13:50:26;18.40;50.40
7254;DHT22;4060;49.186;9.226;2023-04-24T13:52:58;18.40;50.50
7254;DHT22;4060;49.186;9.226;2023-04-24T13:55:29;18.40;50.60
7254;DHT22;4060;49.186;9.226;2023-04-24T13:57:58;18.40;50.70
7254;DHT22;4060;49.186;9.226;2023-04-24T14:00:28;18.40;50.80
7254;DHT22;4060;49.186;9.226;2023-04-24T14:02:58;18.40;50.80
7254;DHT22;4060;49.186;9.226;2023-04-24T14:05:27;18.40;50.90
7254;DHT22;4060;49.186;9.226;2023-04-24T14:07:59;18.40;50.90
7254;DHT22;4060;49.186;9.226;2023-04-24T14:10:29;18.40;50.80
7254;DHT22;4060;49.186;9.226;2023-04-24T14:12:58;18.40;50.70
7254;DHT22;4060;49.186;9.226;2023-04-24T14:15:27;18.40;50.70
7254;DHT22;4060;49.186;9.226;2023-04-24T14:17:57;18.40;50.70
7254;DHT22;4060;49.186;9.226;2023-04-24T14:20:27;18.40;50.90
7254;DHT22;4060;49.186;9.226;2023-04-24T14:22:58;18.40;50.60
7254;DHT22;4060;49.186;9.226;2023-04-24T14:25:30;18.40;50.50
7254;DHT22;4060;49.186;9.226;2023-04-24T14:27:59;18.40;50.50
7254;DHT22;4060;49.186;9.226;2023-04-24T14:30:29;18.40;50.40
7254;DHT22;4060;49.186;9.226;2023-04-24T14:32:59;18.40;50.30
7254;DHT22;4060;49.186;9.226;2023-04-24T14:35:29;18.40;50.20
7254;DHT22;4060;49.186;9.226;2023-04-24T14:38:03;18.40;50.20
7254;DHT22;4060;49.186;9.226;2023-04-24T14:40:33;18.40;50.10
7254;DHT22;4060;49.186;9.226;2023-04-24T14:43:03;18.40;50.00
7254;DHT22;4060;49.186;9.226;2023-04-24T14:45:32;18.40;50.00
7254;DHT22;4060;49.186;9.226;2023-04-24T14:48:01;18.40;49.90
7254;DHT22;4060;49.186;9.226;2023-04-24T14:50:31;18.40;49.90
7254;DHT22;4060;49.186;9.226;2023-04-24T14:53:04;18.40;49.80
7254;DHT22;4060;49.186;9.226;2023-04-24T14:55:33;18.40;49.80
7254;DHT22;4060;49.186;9.226;2023-04-24T14:58:03;18.40;49.80
7254;DHT22;4060;49.186;9.226;2023-04-24T15:00:33;18.40;49.70
7254;DHT22;4060;49.186;9.226;2023-04-24T15:03:03;18.40;49.70
7254;DHT22;4060;49.186;9.226;2023-04-24T15:05:34;18.40;49.80
7254;DHT22;4060;49.186;9.226;2023-04-24T15:08:05;18.40;49.70
7254;DHT22;4060;49.186;9.226;2023-04-24T15:10:35;18.40;49.60
7254;DHT22;4060;49.186;9.226;2023-04-24T15:13:05;18.40;49.60
7254;DHT22;4060;49.186;9.226;2023-04-24T15:15:34;18.40;49.50
7254;DHT22;4060;49.186;9.226;2023-04-24T15:18:04;18.40;49.50
7254;DHT22;4060;49.186;9.226;2023-04-24T15:20:35;18.40;49.40
7254;DHT22;4060;49.186;9.226;2023-04-24T15:23:09;18.40;49.40
7254;DHT22;4060;49.186;9.226;2023-04-24T15:25:39;18.40;49.30
7254;DHT22;4060;49.186;9.226;2023-04-24T15:28:09;18.40;49.30
7254;DHT22;4060;49.186;9.226;2023-04-24T15:30:38;18.40;49.20
7254;DHT22;4060;49.186;9.226;2023-04-24T15:33:08;18.40;49.20
7254;DHT22;4060;49.186;9.226;2023-04-24T15:35:37;18.40;49.20
7254;DHT22;4060;49.186;9.226;2023-04-24T15:38:09;18.40;49.20
7254;DHT22;4060;49.186;9.226;2023-04-24T15:40:38;18.40;49.10
7254;DHT22;4060;49.186;9.226;2023-04-24T15:43:08;18.40;49.10
7254;DHT22;4060;49.186;9.226;2023-04-24T15:45:37;18.40;49.10
7254;DHT22;4060;49.186;9.226;2023-04-24T15:48:07;18.40;49.00
7254;DHT22;4060;49.186;9.226;2023-04-24T15:50:37;18.40;49.00
7254;DHT22;4060;49.186;9.226;2023-04-24T15:53:08;18.40;49.00
7254;DHT22;4060;49.186;9.226;2023-04-24T15:55:38;18.40;49.00
7254;DHT22;4060;49.186;9.226;2023-04-24T15:58:08;18.40;49.00
7254;DHT22;4060;49.186;9.226;2023-04-24T16:00:38;18.40;49.00
7254;DHT22;4060;49.186;9.226;2023-04-24T16:03:07;18.40;49.00
7254;DHT22;4060;49.186;9.226;2023-04-24T16:05:37;18.40;48.90
7254;DHT22;4060;49.186;9.226;2023-04-24T16:08:08;18.40;48.90
7254;DHT22;4060;49.186;9.226;2023-04-24T16:10:40;18.40;49.00
7254;DHT22;4060;49.186;9.226;2023-04-24T16:13:10;18.40;49.00
7254;DHT22;4060;49.186;9.226;2023-04-24T16:15:39;18.40;49.10
7254;DHT22;4060;49.186;9.226;2023-04-24T16:18:09;18.40;49.20
7254;DHT22;4060;49.186;9.226;2023-04-24T16:20:39;18.40;49.30
7254;DHT22;4060;49.186;9.226;2023-04-24T16:23:11;18.40;49.40
7254;DHT22;4060;49.186;9.226;2023-04-24T16:25:41;18.40;49.50